This is the latest recevied weather packets stored in our database for station/object DG6HD-13. If no packets are shown the sender has not sent any weather packets the latest 10 day(s).
| Time | Temp. | Humidity | Pressure | Rain* | Wind** | Luminosity | Snow |
|---|---|---|---|---|---|---|---|
| 1778289495 | 7.22° C | 49% | 1022.7 hPa | - | - | - | - |
| 1778288594 | 8.33° C | 45% | 1022.7 hPa | - | - | - | - |
| 1778287693 | 7.22° C | 49% | 1022.8 hPa | - | - | - | - |
| 1778286793 | 7.22° C | 48% | 1022.9 hPa | - | - | - | - |
| 1778285892 | 7.22° C | 49% | 1022.9 hPa | - | - | - | - |
| 1778284991 | 7.22° C | 49% | 1023 hPa | - | - | - | - |
| 1778284090 | 7.78° C | 47% | 1023.1 hPa | - | - | - | - |
| 1778283189 | 7.22° C | 49% | 1023.1 hPa | - | - | - | - |
| 1778282288 | 7.78° C | 49% | 1023.1 hPa | - | - | - | - |
| 1778281387 | 7.78° C | 49% | 1023.3 hPa | - | - | - | - |
| 1778280486 | 8.89° C | 47% | 1023.1 hPa | - | - | - | - |
| 1778279586 | 7.78° C | 48% | 1023.2 hPa | - | - | - | - |
| 1778278685 | 8.33° C | 49% | 1023.3 hPa | - | - | - | - |
| 1778277784 | 8.33° C | 48% | 1023.4 hPa | - | - | - | - |
| 1778276883 | 8.33° C | 48% | 1023.3 hPa | - | - | - | - |
| 1778275982 | 8.89° C | 47% | 1023.4 hPa | - | - | - | - |
| 1778275081 | 8.89° C | 47% | 1023.5 hPa | - | - | - | - |
| 1778274181 | 8.89° C | 46% | 1023.5 hPa | - | - | - | - |
| 1778273280 | 9.44° C | 46% | 1023.4 hPa | - | - | - | - |
| 1778272379 | 9.44° C | 45% | 1023.4 hPa | - | - | - | - |
| 1778271478 | 10° C | 45% | 1023.3 hPa | - | - | - | - |
| 1778270577 | 10° C | 44% | 1023.3 hPa | - | - | - | - |
| 1778269676 | 10.56° C | 43% | 1023.1 hPa | - | - | - | - |
| 1778268775 | 10.56° C | 42% | 1023.1 hPa | - | - | - | - |
| 1778267875 | 11.11° C | 41% | 1023 hPa | - | - | - | - |
* Rain since midnight (hover to see other rain measurements)
** Current wind speed in m/s (hover to see current wind gust speed)